Aktualne dane pomiarowe

Uwaga, wersja testowa! Automatyczne pobieranie danych za pomocą narzędzi lub skryptów to umożliwiających jest zabronione.

Dane meteo z obszaru Polski uzyskane na podstawie depesz SYNOP pobieranych co godzinę z NWS. Najedź myszką na symbol przedstawiony w tabeli, aby uzyskać informacje co do jego znaczenia. Prosimy pamiętać, że to testowa wersja strony, która jeszcze nie jest ukończona. Stworzono również jest krótki FAQ dotyczący korzystania z tej podstrony Anomalie temperatury w chwili obecnej odniesione są do okresu referencyjnego 1951-2016. Okres ten będzie później zmieniony na 1981-2010. Kliknij ikonę aby pobrać plik CSV. Kliknij ikonę aby wygenerować mapę synoptyczną dla danego terminu.

Wybierz Datę:    

        

Suwałki (12195)

Dane terminowe dla wybranej stacji. Kliknij datę, aby otrzymać dane z tego terminu dla wszystkich stacji.

TemperaturaZachmurzenieWiatrCiśnienieOpadyPogoda
 Data t td wb tx tn tg rh  Nt Nl Cl Cm Ch ws wd g1 g2 wx mslp ppp ch 24h 12h t ww ww w1 w2  
2019-06-30 23:00:00 19.1 13.5 15.4--- 7035.0wx-2wx--21008.1 986.4 -1.6---------
2019-06-30 22:00:00 18.0 12.0 14.2--- 6830.0wx-1wx--11008.6 986.8 -1.7---------
2019-06-30 21:00:00 20.0 12.7 15.4--- 6335.0wx-2wx--21009.1 987.5 -1.2---------
2019-06-30 20:00:00 21.7 13.1 16.3--- 5835.0wx-3wx---1009.5 988.0 -1.1---------
2019-06-30 19:00:00 23.7 12.7 16.9--- 5021.0wx-wx1wx--11009.9 988.5 -1.1---------
2019-06-30 18:00:00 27.5 11.5 17.9 30.1 20.6- 3750.0wx-3wx-1031009.8 988.7 -1.2- 0.012------
2019-06-30 17:00:00 28.5 10.7 17.9--- 3350.0wx-4wx--41010.2 989.1 -1.2---------
2019-06-30 16:00:00 29.2 11.3 18.4--- 3340.0wx-5wx--51010.6 989.6 -0.9---------
2019-06-30 15:00:00 29.0 11.1 18.3--- 3335.0wx-wx5wx-1051010.9 989.9 -1.0---------
2019-06-30 14:00:00 29.9 10.9 18.5--- 3135.0wx-wx4wx-1041011.3 990.3 -1.0---------
2019-06-30 13:00:00 28.8 11.8 18.5--- 3535.0wx-wx6wx--61011.6 990.5 -0.9---------
2019-06-30 12:00:00 28.7 13.4 19.2--- 3935.0wx-4wx-1141012.0 990.9 -0.6- 0.06------
2019-06-30 11:00:00 27.8 12.6 18.5--- 3935.0wx-7wx-1171012.5 991.3 -0.3---------
2019-06-30 10:00:00 26.5 12.9 18.1--- 4327.0wx-6wx111161012.7 991.4 0.1---------
2019-06-30 09:00:00 25.2 12.1 17.2--- 4435.0wx-6wx---1012.9 991.5 0.2---------
2019-06-30 08:00:00 23.4 13.6 17.2--- 5435.0wx-5wx--51013.1 991.6 0.2---------
2019-06-30 07:00:00 22.2 14.6 17.3--- 6235.0wx-wx5wx--51012.9 991.3 -0.1---------
2019-06-30 06:00:00 20.6 14.7 16.7 21.0 14.3 13 6935.0wx-wx5wx--51013.0 991.3 -0.1- 0.012----- 10.3
2019-06-30 05:00:00 18.0 13.7 15.1--- 7635.0wx-wx4wx--41013.3 991.4 0.2---------
2019-06-30 04:00:00 14.9 11.9 12.9--- 8229.0wx-wx4wx---1013.5 991.4 -0.1---------
2019-06-30 03:00:00 14.5 11.5 12.5--- 8240.0wx-wx4wx--41013.6 991.4 -0.8---------
2019-06-30 02:00:00 14.5 11.5 12.5--- 8235.0wx-wx2wx--21013.4 991.2 -1.1---------
2019-06-30 01:00:00 15.0 11.9 12.9--- 8235.0wx-wx4wx--41013.6 991.5 -0.5---------
2019-06-30 00:00:00 16.2 12.0 13.4--- 7640.0wx-wx3wx--31014.2 992.2 -0.1- 0.06------
2019-06-29 23:00:00 15.9 11.5 13.0--- 7540.0wx-wx3wx---1014.4 992.3 -0.2---------
2019-06-29 22:00:00 16.0 11.2 12.9--- 7340.0wx-4wx---1014.1 992.0 -0.7---------
2019-06-29 21:00:00 16.9 11.2 13.3--- 6940.0wx-4wx--41014.3 992.3 -0.5---------
2019-06-29 20:00:00 17.5 10.8 13.3--- 6516.0wx-wx3wx--31014.4 992.5 -0.9---------
2019-06-29 19:00:00 19.2 10.2 13.8--- 5645.0wx-wx4wx--41014.5 992.7 -0.8---------
2019-06-29 18:00:00 21.0 9.9 14.4 23.0 15.3- 4940.0wx-wx4wx-1041014.5 992.8 -0.8- 0.012------
2019-06-29 17:00:00 21.8 9.3 14.5--- 4545.0wx-wxwx6wx---1015.0 993.4 -0.5---------
2019-06-29 16:00:00 22.5 10.0 15.1--- 4535.0wxwxwxwx5wx---1015.1 993.5 -0.8---------
2019-06-29 15:00:00 21.8 12.4 16.0--- 5530.0wxwxwxwx4wx-1041015.2 993.6 -1.4---------
2019-06-29 14:00:00 22.0 9.8 14.8--- 4645.0wxwxwxwx6wx---1015.5 993.9 -1.5---------
2019-06-29 13:00:00 22.2 8.3 14.3--- 4135.0wxwxwxwx4wx---1015.9 994.3 -1.4---------
2019-06-29 12:00:00 21.5 5.0 12.6--- 3435.0wx-wx3wx-931016.7 995.0 -0.8- 0.06------
2019-06-29 11:00:00 19.1 3.3 10.9--- 3540.0wx-wx4wx--41017.3 995.4 -0.6---------
2019-06-29 10:00:00 19.7 5.0 11.8--- 3835.0wx-wx4wx-941017.6 995.7 -0.2---------
2019-06-29 09:00:00 19.0 5.1 11.5--- 4040.0wx-wx4wx--41017.7 995.8 -0.1---------
2019-06-29 08:00:00 18.6 5.1 11.3--- 4135.0wx-wxwx4wx--41017.9 996.0 -0.1---------
2019-06-29 07:00:00 17.7 5.6 11.1--- 4535.0wx-wxwx4wx--41017.9 995.9 -0.2---------
2019-06-29 06:00:00 15.3 5.2 9.8 16.7 7.7 6 5135.0wx-wxwx4wx--41018.1 995.9 -0.3- 0.012----- 13.6
2019-06-29 05:00:00 12.3 7.0 9.1--- 7035.0wx-wxwx3wx--31018.5 996.1 -0.2---------
2019-06-29 04:00:00 10.5 7.0 8.3--- 7940.0wx-wxwx3wx--31018.7 996.1 -0.2---------
2019-06-29 03:00:00 7.7 5.5 6.3--- 8650.0wx-wxwx2wx--21019.0 996.2 0.0---------
2019-06-29 02:00:00 8.6 5.9 6.9--- 8350.0wx-wxwx2wx--21019.0 996.3 -0.1---------
2019-06-29 01:00:00 9.4 5.9 7.2--- 7950.0wx-3wx--31019.0 996.3 -0.1---------
2019-06-29 00:00:00 10.0 6.0 7.6--- 7650.0wx-4wx--41018.8 996.2 0.0- 0.06------
1.7 ms

 

Print Friendly, PDF & Email